Time;durP1;ratioP1;P1;durP2;ratioP2;P2;SDS_P1;SDS_P2;PMS_P1;PMS_P2;Temp;Humidity;BMP_temperature;BMP_pressure;BME280_temperature;BME280_humidity;BME280_pressure;Samples;Min_cycle;Max_cycle;Signal;HPM_P1;HPM_P2
2022/03/13 00:00:44;;;;;;;12.52;7.63;;;8.10;99.90;;;;;;5063869;28;20055;-84
2022/03/13 00:03:10;;;;;;;13.85;8.00;;;6.60;99.90;;;;;;5065640;28;20052;-83
2022/03/13 00:05:40;;;;;;;12.80;7.63;;;8.00;99.90;;;;;;5065416;28;20041;-83
2022/03/13 00:08:32;;;;;;;14.18;7.97;;;6.60;99.90;;;;;;5065064;28;20044;-84
2022/03/13 00:11:18;;;;;;;14.18;8.00;;;6.60;99.90;;;;;;5065208;28;20076;-83
2022/03/13 00:13:53;;;;;;;16.77;8.60;;;5.80;99.90;;;;;;5066329;28;20137;-84
2022/03/13 00:16:20;;;;;;;11.43;7.57;;;6.50;99.90;;;;;;5064778;28;20052;-83
2022/03/13 00:18:47;;;;;;;12.55;7.95;;;7.90;99.90;;;;;;5064991;28;20488;-84
2022/03/13 00:21:20;;;;;;;11.23;7.75;;;6.50;99.90;;;;;;5063193;28;20048;-83
2022/03/13 00:23:47;;;;;;;12.73;8.73;;;7.90;99.90;;;;;;5066358;28;20041;-84
2022/03/13 00:26:15;;;;;;;13.00;8.10;;;7.60;99.90;;;;;;5065582;28;20051;-84
2022/03/13 00:28:41;;;;;;;13.25;8.40;;;7.80;99.90;;;;;;5065491;28;20492;-84
2022/03/13 00:31:07;;;;;;;12.23;8.65;;;7.50;99.90;;;;;;5066280;28;20033;-83
2022/03/13 00:33:33;;;;;;;14.18;8.55;;;6.20;99.90;;;;;;5047569;28;20033;-84
2022/03/13 00:35:59;;;;;;;17.30;8.95;;;7.10;99.90;;;;;;5067107;28;20051;-83
2022/03/13 00:38:25;;;;;;;12.18;8.65;;;6.20;99.90;;;;;;5050183;28;20140;-82
2022/03/13 00:40:55;;;;;;;14.23;8.10;;;7.60;99.90;;;;;;5068763;28;20088;-83
2022/03/13 00:43:23;;;;;;;12.40;7.72;;;7.60;99.90;;;;;;5067778;28;20048;-83
2022/03/13 00:45:49;;;;;;;12.18;8.35;;;6.20;99.90;;;;;;5069691;28;20045;-82
2022/03/13 00:48:16;;;;;;;18.25;8.93;;;7.50;99.90;;;;;;5070389;28;20441;-85
2022/03/13 00:50:42;;;;;;;12.77;8.18;;;6.20;99.90;;;;;;5067100;28;20100;-82
2022/03/13 00:53:08;;;;;;;13.63;8.20;;;7.50;99.90;;;;;;5070035;28;20380;-82
2022/03/13 00:55:34;;;;;;;11.70;8.20;;;5.50;99.90;;;;;;5067065;28;20071;-82
2022/03/13 00:58:00;;;;;;;14.30;8.73;;;6.80;99.90;;;;;;5068285;28;20416;-84
2022/03/13 01:00:29;;;;;;;12.20;8.38;;;7.80;99.90;;;;;;5067667;28;20033;-83
2022/03/13 01:02:55;;;;;;;19.95;8.60;;;6.40;99.90;;;;;;5069290;28;20052;-83
2022/03/13 01:05:23;;;;;;;14.50;8.60;;;7.20;99.90;;;;;;5052061;28;20055;-83
2022/03/13 01:07:51;;;;;;;14.38;8.57;;;6.50;99.90;;;;;;5050540;28;20094;-83
2022/03/13 01:10:17;;;;;;;17.33;9.25;;;6.50;99.90;;;;;;5070387;28;20042;-83
2022/03/13 01:12:43;;;;;;;19.17;8.50;;;6.40;99.90;;;;;;5033515;28;20165;-83
2022/03/13 01:15:09;;;;;;;14.05;8.80;;;6.10;99.90;;;;;;5069002;28;20063;-83
2022/03/13 01:17:35;;;;;;;15.98;9.05;;;6.50;99.90;;;;;;5068202;28;20531;-84
2022/03/13 01:20:03;;;;;;;19.50;9.15;;;6.50;99.90;;;;;;5050870;28;20076;-84
2022/03/13 01:22:30;;;;;;;14.43;8.07;;;7.90;99.90;;;;;;5067757;28;20041;-83
2022/03/13 01:24:56;;;;;;;12.60;8.32;;;7.70;99.90;;;;;;5066253;28;20135;-83
2022/03/13 01:27:22;;;;;;;13.32;8.63;;;7.30;99.90;;;;;;5068989;28;20120;-84
2022/03/13 01:29:48;;;;;;;13.52;8.45;;;6.50;99.90;;;;;;5049441;28;20066;-84
2022/03/13 01:32:14;;;;;;;19.95;10.07;;;7.80;99.90;;;;;;5068022;28;20079;-84
2022/03/13 01:34:46;;;;;;;15.23;9.10;;;7.20;99.90;;;;;;5049970;28;20092;-83
2022/03/13 01:37:36;;;;;;;15.23;9.32;;;7.00;99.90;;;;;;5050117;28;20052;-84
2022/03/13 01:40:11;;;;;;;15.20;9.25;;;6.50;99.90;;;;;;5069535;28;20055;-84
2022/03/13 01:42:40;;;;;;;14.50;8.63;;;6.50;99.90;;;;;;5067634;28;20088;-84
2022/03/13 01:45:10;;;;;;;14.25;8.52;;;6.50;99.90;;;;;;5068993;28;20392;-83
2022/03/13 01:47:36;;;;;;;16.52;8.27;;;6.50;99.90;;;;;;5065598;28;20072;-84
2022/03/13 01:50:09;;;;;;;13.82;9.07;;;6.50;99.90;;;;;;5033703;28;20047;-83
2022/03/13 01:52:37;;;;;;;12.25;6.90;;;6.60;99.90;;;;;;5069691;28;20039;-84
2022/03/13 01:55:04;;;;;;;17.05;8.77;;;8.00;99.90;;;;;;5067806;28;20052;-84
2022/03/13 01:57:32;;;;;;;14.65;9.10;;;6.60;99.90;;;;;;5069164;28;20040;-84
2022/03/13 01:59:59;;;;;;;13.43;8.65;;;8.00;99.90;;;;;;5069512;28;20455;-83
2022/03/13 02:02:28;;;;;;;12.93;8.48;;;7.00;99.90;;;;;;5083640;28;20067;-83
2022/03/13 02:04:56;;;;;;;13.52;8.65;;;8.10;99.90;;;;;;5075563;28;20174;-84
2022/03/13 02:07:24;;;;;;;12.18;8.75;;;7.30;99.90;;;;;;5068067;28;20045;-84
2022/03/13 02:09:50;;;;;;;17.38;9.15;;;6.80;99.90;;;;;;5066956;28;20056;-84
2022/03/13 02:12:20;;;;;;;14.35;9.20;;;8.10;99.90;;;;;;5065489;28;20056;-84
2022/03/13 02:14:48;;;;;;;13.43;7.68;;;8.30;99.90;;;;;;5067022;28;20299;-84
2022/03/13 02:17:25;;;;;;;12.82;7.90;;;7.60;99.90;;;;;;5048845;28;20123;-84
2022/03/13 02:19:51;;;;;;;16.50;10.07;;;8.10;99.90;;;;;;5049806;28;20063;-84
2022/03/13 02:22:18;;;;;;;13.77;8.18;;;7.60;99.90;;;;;;5066893;28;20056;-84
2022/03/13 02:24:48;;;;;;;14.32;9.00;;;6.90;99.90;;;;;;5048666;28;20072;-83
2022/03/13 02:27:25;;;;;;;16.48;9.45;;;7.00;99.90;;;;;;5050394;28;20056;-83
2022/03/13 02:29:51;;;;;;;14.27;9.15;;;7.00;99.90;;;;;;5066626;28;20084;-84
2022/03/13 02:32:18;;;;;;;16.52;9.10;;;7.50;99.90;;;;;;5067794;28;20072;-83
2022/03/13 02:34:46;;;;;;;13.65;8.80;;;7.10;99.90;;;;;;5066437;28;20447;-84
2022/03/13 02:37:29;;;;;;;15.57;8.35;;;7.10;99.90;;;;;;5067037;28;20059;-84
2022/03/13 02:39:55;;;;;;;14.70;8.82;;;7.10;99.90;;;;;;5050001;28;20092;-84
2022/03/13 02:42:21;;;;;;;17.17;9.13;;;7.20;99.90;;;;;;5031942;28;20377;-84
2022/03/13 02:44:49;;;;;;;14.82;9.43;;;7.90;99.90;;;;;;5049279;28;20071;-84
2022/03/13 02:47:14;;;;;;;15.02;10.20;;;8.30;99.90;;;;;;5048399;28;20048;-84
2022/03/13 02:49:40;;;;;;;17.85;10.05;;;7.20;99.90;;;;;;5049334;28;20052;-84
2022/03/13 02:52:06;;;;;;;12.82;9.05;;;7.20;99.90;;;;;;5066532;28;20183;-84
2022/03/13 02:54:32;;;;;;;15.60;9.77;;;7.20;99.90;;;;;;5066393;28;20045;-84
2022/03/13 02:56:59;;;;;;;16.10;9.13;;;7.20;99.90;;;;;;5067713;28;20275;-85
2022/03/13 02:59:25;;;;;;;14.45;8.95;;;8.50;99.90;;;;;;5065773;28;20072;-84
2022/03/13 03:01:51;;;;;;;13.27;8.63;;;8.60;99.90;;;;;;5049284;28;20055;-84
2022/03/13 03:04:20;;;;;;;15.68;8.40;;;7.30;99.90;;;;;;5066321;28;20051;-84
2022/03/13 03:07:01;;;;;;;14.95;9.77;;;8.40;99.90;;;;;;5065265;28;20088;-84
2022/03/13 03:09:29;;;;;;;16.45;9.27;;;7.10;99.90;;;;;;5067561;28;20045;-84
2022/03/13 03:11:57;;;;;;;14.68;9.13;;;8.50;99.90;;;;;;5064099;28;20056;-84
2022/03/13 03:14:23;;;;;;;21.27;10.07;;;7.90;99.90;;;;;;5066838;28;20488;-83
2022/03/13 03:16:49;;;;;;;15.93;9.63;;;7.60;99.90;;;;;;5065503;28;20060;-84
2022/03/13 03:19:15;;;;;;;15.43;9.02;;;8.10;99.90;;;;;;5065651;28;20139;-84
2022/03/13 03:21:42;;;;;;;17.08;10.30;;;8.30;99.90;;;;;;5065347;28;20119;-84
2022/03/13 03:24:16;;;;;;;14.63;9.27;;;8.30;99.90;;;;;;5066107;28;20103;-83
2022/03/13 03:26:42;;;;;;;13.38;8.85;;;7.00;99.90;;;;;;5067253;28;20117;-83
2022/03/13 03:29:08;;;;;;;14.73;10.20;;;8.40;99.90;;;;;;5065555;28;20630;-84
2022/03/13 03:31:40;;;;;;;15.45;10.40;;;8.10;99.90;;;;;;5066609;28;20043;-83
2022/03/13 03:34:11;;;;;;;16.42;10.40;;;7.60;99.90;;;;;;5065782;28;20040;-83
2022/03/13 03:36:46;;;;;;;14.63;8.95;;;7.30;99.90;;;;;;5064818;28;20056;-84
2022/03/13 03:39:13;;;;;;;14.20;8.60;;;7.80;99.90;;;;;;5066998;28;20151;-83
2022/03/13 03:41:41;;;;;;;15.50;9.15;;;7.60;99.90;;;;;;5065484;28;20433;-84
2022/03/13 03:44:06;;;;;;;25.90;9.90;;;7.80;99.90;;;;;;5048505;28;20048;-84
2022/03/13 03:46:32;;;;;;;16.70;9.00;;;7.10;99.90;;;;;;5065298;28;20043;-83
2022/03/13 03:48:58;;;;;;;15.60;9.80;;;7.80;99.90;;;;;;5065219;28;20052;-83
2022/03/13 03:51:24;;;;;;;15.18;8.50;;;6.70;99.90;;;;;;5064374;28;20051;-84
2022/03/13 03:53:50;;;;;;;13.73;9.50;;;6.70;99.90;;;;;;5031178;28;20097;-84
2022/03/13 03:56:15;;;;;;;17.88;10.05;;;6.90;99.90;;;;;;5065063;28;20055;-84
2022/03/13 03:58:41;;;;;;;14.57;9.32;;;8.00;99.90;;;;;;5065300;28;20042;-84
2022/03/13 04:01:07;;;;;;;16.88;9.27;;;6.60;99.90;;;;;;5048587;28;20044;-83
2022/03/13 04:03:32;;;;;;;17.67;10.23;;;7.80;99.90;;;;;;5065034;28;20123;-84
2022/03/13 04:05:58;;;;;;;16.42;10.00;;;6.50;99.90;;;;;;5067474;28;20048;-84
2022/03/13 04:08:24;;;;;;;16.50;9.65;;;6.50;99.90;;;;;;5048074;28;20560;-84
2022/03/13 04:10:50;;;;;;;15.98;9.70;;;6.50;99.90;;;;;;5066060;28;20497;-84
2022/03/13 04:13:18;;;;;;;15.60;9.27;;;6.50;99.90;;;;;;5069529;28;20041;-84
2022/03/13 04:15:44;;;;;;;18.98;9.63;;;6.40;99.90;;;;;;5051259;28;20645;-83
2022/03/13 04:18:10;;;;;;;16.40;9.13;;;6.70;99.90;;;;;;5052905;28;20123;-84
2022/03/13 04:20:36;;;;;;;20.48;9.52;;;6.30;99.90;;;;;;5069208;28;20049;-83
2022/03/13 04:23:02;;;;;;;16.27;9.45;;;6.30;99.90;;;;;;5070937;28;20059;-84
2022/03/13 04:25:29;;;;;;;15.43;9.50;;;6.30;99.90;;;;;;5069555;28;20045;-84
2022/03/13 04:27:57;;;;;;;15.60;9.70;;;6.20;99.90;;;;;;5059873;28;20052;-84
2022/03/13 04:30:22;;;;;;;16.25;9.80;;;7.10;99.90;;;;;;5084177;28;20072;-84
2022/03/13 04:32:48;;;;;;;18.98;10.48;;;6.10;99.90;;;;;;5071320;28;20134;-84
2022/03/13 04:35:14;;;;;;;19.95;10.23;;;6.80;99.90;;;;;;5071456;28;20051;-84
2022/03/13 04:37:40;;;;;;;17.15;9.82;;;6.00;99.90;;;;;;5069895;28;20539;-83
2022/03/13 04:40:06;;;;;;;14.90;9.45;;;6.10;99.90;;;;;;5052676;28;20079;-83
2022/03/13 04:42:31;;;;;;;15.18;9.40;;;6.00;99.90;;;;;;5067688;28;20049;-84
2022/03/13 04:44:57;;;;;;;15.00;9.52;;;5.90;99.90;;;;;;5069671;28;20398;-84
2022/03/13 04:47:23;;;;;;;17.90;9.30;;;7.00;99.90;;;;;;5068729;28;20087;-84
2022/03/13 04:49:48;;;;;;;16.77;9.77;;;7.10;99.90;;;;;;5067242;28;20052;-84
2022/03/13 04:52:14;;;;;;;14.63;8.88;;;6.90;99.90;;;;;;5052196;28;20054;-84
2022/03/13 04:54:40;;;;;;;17.63;9.93;;;5.80;99.90;;;;;;5068239;28;20075;-84
2022/03/13 04:57:06;;;;;;;15.68;9.80;;;6.50;99.90;;;;;;5051350;28;20139;-83
2022/03/13 04:59:31;;;;;;;16.42;9.77;;;5.70;99.90;;;;;;5067165;28;20037;-84
2022/03/13 05:01:59;;;;;;;16.35;9.73;;;5.70;99.90;;;;;;5067648;28;20170;-84
2022/03/13 05:04:25;;;;;;;20.83;10.48;;;6.70;99.90;;;;;;5069802;28;20075;-83
2022/03/13 05:06:51;;;;;;;15.25;9.43;;;5.70;99.90;;;;;;5067330;28;20489;-84
2022/03/13 05:09:16;;;;;;;25.08;10.23;;;6.90;99.90;;;;;;5068633;28;20120;-84
2022/03/13 05:11:42;;;;;;;17.15;10.18;;;7.20;99.90;;;;;;5066761;28;20518;-84
2022/03/13 05:14:08;;;;;;;17.90;10.60;;;7.10;99.90;;;;;;5051498;28;20392;-83
2022/03/13 05:16:34;;;;;;;15.75;9.07;;;5.80;99.90;;;;;;5066314;28;20048;-83
2022/03/13 05:19:00;;;;;;;17.42;10.27;;;5.80;99.90;;;;;;5034359;28;20158;-83
2022/03/13 05:21:26;;;;;;;16.58;8.95;;;6.80;99.90;;;;;;5051014;28;20049;-83
2022/03/13 05:23:52;;;;;;;14.95;9.40;;;6.70;99.90;;;;;;5050385;28;20049;-83
2022/03/13 05:26:17;;;;;;;16.10;10.02;;;5.80;99.90;;;;;;5069542;28;20480;-84
2022/03/13 05:28:43;;;;;;;17.48;8.63;;;5.70;99.90;;;;;;5066331;28;20080;-83
2022/03/13 05:31:08;;;;;;;15.68;8.68;;;7.20;99.90;;;;;;5067977;28;20383;-84
2022/03/13 05:33:34;;;;;;;16.73;8.98;;;6.20;99.90;;;;;;5049711;28;20490;-83
2022/03/13 05:36:04;;;;;;;15.35;9.27;;;6.80;99.90;;;;;;5067665;28;20122;-84
2022/03/13 05:38:29;;;;;;;18.45;9.02;;;5.60;99.90;;;;;;5067669;28;20110;-83
2022/03/13 05:40:55;;;;;;;16.75;9.25;;;6.80;99.90;;;;;;5050162;28;20037;-84
2022/03/13 05:43:22;;;;;;;18.90;8.90;;;5.50;99.90;;;;;;5067349;28;20458;-84
2022/03/13 05:45:48;;;;;;;15.70;8.98;;;5.50;99.90;;;;;;5066151;28;20055;-83
2022/03/13 05:48:17;;;;;;;13.75;9.18;;;6.20;99.90;;;;;;5067346;28;20145;-85
2022/03/13 05:50:44;;;;;;;16.88;9.35;;;6.90;99.90;;;;;;5049278;28;20055;-82
2022/03/13 05:53:10;;;;;;;13.45;8.40;;;6.70;99.90;;;;;;5068723;28;20115;-82
2022/03/13 05:55:36;;;;;;;16.80;8.95;;;6.80;99.90;;;;;;5068433;28;20461;-83
2022/03/13 05:58:02;;;;;;;19.58;9.40;;;5.50;99.90;;;;;;5049397;28;20044;-83
2022/03/13 06:00:32;;;;;;;14.60;9.45;;;6.90;99.90;;;;;;5067234;28;20045;-83
2022/03/13 06:02:59;;;;;;;17.92;9.38;;;6.20;99.90;;;;;;5067067;28;20040;-83
2022/03/13 06:05:25;;;;;;;19.60;9.63;;;6.50;99.90;;;;;;5068551;28;20400;-83
2022/03/13 06:07:51;;;;;;;11.77;8.48;;;5.90;99.90;;;;;;5065966;28;20142;-83
2022/03/13 06:10:17;;;;;;;14.32;8.68;;;5.60;99.90;;;;;;5033381;28;20052;-83
2022/03/13 06:12:44;;;;;;;14.15;9.30;;;7.10;99.90;;;;;;5066790;28;20052;-84
2022/03/13 06:15:11;;;;;;;14.50;8.68;;;6.50;99.90;;;;;;5049324;28;20388;-84
2022/03/13 06:17:42;;;;;;;12.70;9.05;;;6.60;99.90;;;;;;5066836;28;20839;-83
2022/03/13 06:20:10;;;;;;;15.75;8.98;;;5.70;99.90;;;;;;5066724;28;20098;-84
2022/03/13 06:22:38;;;;;;;13.75;7.85;;;5.70;99.90;;;;;;5066529;28;20584;-85
2022/03/13 06:25:06;;;;;;;16.88;8.85;;;6.40;99.90;;;;;;5048598;28;20041;-84
2022/03/13 06:27:31;;;;;;;22.88;9.23;;;5.80;99.90;;;;;;5033024;28;20094;-83
2022/03/13 06:30:00;;;;;;;13.73;8.00;;;5.80;99.90;;;;;;5049745;28;20041;-84
2022/03/13 06:32:27;;;;;;;13.23;8.55;;;5.80;99.90;;;;;;5065677;28;20119;-84
2022/03/13 06:34:53;;;;;;;14.15;8.80;;;6.80;99.90;;;;;;5066057;28;20049;-86
2022/03/13 06:37:19;;;;;;;13.10;8.52;;;5.90;99.90;;;;;;5014939;28;20052;-85
2022/03/13 06:39:45;;;;;;;17.02;8.80;;;5.90;99.90;;;;;;5066024;28;20097;-85
2022/03/13 06:42:11;;;;;;;14.10;8.32;;;7.30;99.90;;;;;;5048893;28;20037;-84
2022/03/13 06:44:37;;;;;;;14.02;7.30;;;5.90;99.90;;;;;;5066532;28;20500;-86
2022/03/13 06:47:03;;;;;;;17.27;8.07;;;7.00;99.90;;;;;;5066398;28;20369;-84
2022/03/13 06:49:28;;;;;;;11.85;7.75;;;5.90;99.90;;;;;;5048717;28;20559;-85
2022/03/13 06:51:54;;;;;;;15.43;8.10;;;6.80;99.90;;;;;;5066200;28;20492;-85
2022/03/13 06:54:20;;;;;;;17.30;7.93;;;5.90;99.90;;;;;;5048886;28;20044;-85
2022/03/13 06:56:48;;;;;;;17.55;8.75;;;7.30;99.90;;;;;;5068159;28;20391;-84
2022/03/13 06:59:13;;;;;;;17.98;8.25;;;5.90;99.90;;;;;;5052551;28;20063;-84
2022/03/13 07:01:39;;;;;;;17.95;8.15;;;6.00;99.90;;;;;;5066148;28;20142;-84
2022/03/13 07:04:05;;;;;;;12.43;8.38;;;6.00;99.90;;;;;;5066110;28;20051;-83
2022/03/13 07:06:33;;;;;;;12.13;7.22;;;6.00;99.90;;;;;;5048312;28;20557;-84
2022/03/13 07:08:59;;;;;;;14.02;8.10;;;7.20;99.90;;;;;;5049544;28;20105;-83
2022/03/13 07:11:32;;;;;;;14.90;8.52;;;7.50;99.90;;;;;;5066169;28;20090;-81
2022/03/13 07:13:59;;;;;;;11.88;7.55;;;6.60;99.90;;;;;;5049921;28;20385;-84
2022/03/13 07:16:25;;;;;;;12.02;8.20;;;6.00;99.90;;;;;;5048195;28;20530;-84
2022/03/13 07:18:51;;;;;;;15.05;7.70;;;6.10;99.90;;;;;;5065803;28;20040;-84
2022/03/13 07:21:17;;;;;;;12.77;7.70;;;6.10;99.90;;;;;;5032721;28;20072;-84
2022/03/13 07:23:42;;;;;;;15.50;7.70;;;7.10;99.90;;;;;;5064834;28;20546;-84
2022/03/13 07:26:08;;;;;;;11.85;7.55;;;6.10;99.90;;;;;;5067407;28;20446;-84
2022/03/13 07:28:34;;;;;;;13.85;8.27;;;6.50;99.90;;;;;;5066014;28;20036;-84
2022/03/13 07:30:59;;;;;;;14.48;8.13;;;6.80;99.90;;;;;;5065328;28;20080;-84
2022/03/13 07:33:25;;;;;;;13.90;8.30;;;7.70;99.90;;;;;;5064615;28;20041;-84
2022/03/13 07:35:51;;;;;;;16.27;8.98;;;6.60;99.90;;;;;;5066650;28;20041;-84
2022/03/13 07:38:16;;;;;;;21.05;8.70;;;6.30;99.90;;;;;;5065563;28;20163;-84
2022/03/13 07:40:43;;;;;;;15.32;8.13;;;6.40;99.90;;;;;;5066081;28;20040;-85
2022/03/13 07:43:10;;;;;;;14.55;8.68;;;7.30;99.90;;;;;;5049325;28;20093;-84
2022/03/13 07:45:35;;;;;;;12.38;8.15;;;7.70;99.90;;;;;;5063378;28;20389;-84
2022/03/13 07:48:01;;;;;;;12.95;8.60;;;7.90;99.90;;;;;;5048678;28;20043;-83
2022/03/13 07:50:28;;;;;;;12.18;8.52;;;6.60;99.90;;;;;;5047107;28;20044;-85
2022/03/13 07:52:54;;;;;;;12.10;7.45;;;6.70;99.90;;;;;;5031914;28;20455;-85
2022/03/13 07:55:21;;;;;;;13.77;7.78;;;6.80;99.90;;;;;;5066106;28;20047;-84
2022/03/13 07:57:50;;;;;;;15.25;8.40;;;6.80;99.90;;;;;;5047413;28;20110;-86
2022/03/13 08:00:18;;;;;;;13.93;7.20;;;6.90;99.90;;;;;;5048511;28;20044;-85
2022/03/13 08:02:50;;;;;;;11.15;6.80;;;7.00;99.90;;;;;;5046745;28;20507;-85
2022/03/13 08:05:18;;;;;;;14.90;7.93;;;8.00;99.20;;;;;;5066302;28;20041;-84
2022/03/13 08:07:45;;;;;;;13.52;7.75;;;8.10;99.10;;;;;;5065402;28;20370;-84
2022/03/13 08:10:12;;;;;;;11.35;7.18;;;7.40;98.60;;;;;;5064965;28;20445;-84
2022/03/13 08:12:38;;;;;;;13.88;7.03;;;8.70;98.40;;;;;;5065371;28;20170;-84
2022/03/13 08:15:09;;;;;;;15.48;8.93;;;7.60;97.20;;;;;;5065734;28;20122;-83
2022/03/13 08:17:36;;;;;;;11.35;7.32;;;7.70;96.80;;;;;;5065110;28;20060;-83
2022/03/13 08:20:06;;;;;;;11.48;6.70;;;7.80;96.80;;;;;;5065014;28;20476;-84
2022/03/13 08:22:32;;;;;;;20.77;7.45;;;7.90;96.20;;;;;;5065065;28;20040;-84
2022/03/13 08:24:58;;;;;;;12.00;7.40;;;8.00;96.30;;;;;;5065516;28;20032;-84
2022/03/13 08:27:24;;;;;;;13.18;7.50;;;8.20;95.80;;;;;;5065267;28;20036;-83
2022/03/13 08:29:51;;;;;;;12.05;7.75;;;8.30;94.60;;;;;;5066787;28;20049;-84
2022/03/13 08:32:17;;;;;;;11.23;7.00;;;9.50;94.70;;;;;;5064116;28;20051;-83
2022/03/13 08:34:45;;;;;;;13.43;7.40;;;8.60;93.50;;;;;;5066336;28;20406;-85
2022/03/13 08:37:12;;;;;;;14.30;7.28;;;8.70;93.00;;;;;;5064697;28;20048;-84
2022/03/13 08:39:38;;;;;;;13.95;7.55;;;8.80;92.60;;;;;;5066327;28;20090;-85
2022/03/13 08:42:05;;;;;;;11.63;6.30;;;8.80;91.50;;;;;;5065070;28;20048;-85
2022/03/13 08:44:31;;;;;;;12.88;8.18;;;8.90;90.40;;;;;;5064125;28;20036;-85
2022/03/13 08:46:57;;;;;;;14.07;7.00;;;9.70;90.50;;;;;;5048089;28;20094;-85
2022/03/13 08:49:23;;;;;;;14.88;7.10;;;10.30;90.50;;;;;;5065038;28;20041;-84
2022/03/13 08:51:48;;;;;;;13.65;7.40;;;10.20;88.50;;;;;;5031900;28;20053;-82
2022/03/13 08:54:16;;;;;;;14.57;7.03;;;9.50;86.50;;;;;;5063257;28;20051;-83
2022/03/13 08:56:46;;;;;;;11.48;6.03;;;10.20;85.10;;;;;;5067253;28;20048;-79
2022/03/13 08:59:12;;;;;;;10.18;6.35;;;9.80;80.30;;;;;;5069425;28;20048;-81
2022/03/13 09:01:37;;;;;;;15.00;7.28;;;9.80;77.20;;;;;;5051361;28;20046;-80
2022/03/13 09:04:03;;;;;;;12.25;6.90;;;10.40;77.90;;;;;;5069778;28;20435;-81
2022/03/13 09:06:29;;;;;;;12.10;7.03;;;10.10;75.90;;;;;;5068872;28;20045;-80
2022/03/13 09:08:55;;;;;;;14.73;7.22;;;10.10;74.20;;;;;;5070054;28;20071;-80
2022/03/13 09:11:20;;;;;;;9.80;6.18;;;10.20;72.50;;;;;;5067025;28;20046;-79
2022/03/13 09:13:46;;;;;;;11.70;7.07;;;11.50;72.30;;;;;;5068089;28;20040;-80
2022/03/13 09:16:12;;;;;;;10.52;7.18;;;10.70;71.00;;;;;;5068376;28;20057;-80
2022/03/13 09:18:39;;;;;;;11.85;6.05;;;10.10;70.40;;;;;;5050778;28;20049;-82
2022/03/13 09:21:05;;;;;;;10.18;6.40;;;10.10;70.50;;;;;;5069265;28;20123;-83
2022/03/13 09:23:32;;;;;;;13.32;7.45;;;10.20;70.50;;;;;;5068264;28;20468;-83
2022/03/13 09:25:58;;;;;;;11.15;6.90;;;10.40;70.00;;;;;;5069965;28;20041;-81
2022/03/13 09:28:24;;;;;;;11.10;7.05;;;10.90;70.20;;;;;;5069004;28;20388;-80
2022/03/13 09:30:50;;;;;;;10.93;7.22;;;10.50;69.20;;;;;;5070177;28;20033;-80
2022/03/13 09:33:16;;;;;;;9.82;5.93;;;11.70;68.90;;;;;;5071172;28;20040;-80
2022/03/13 09:35:42;;;;;;;14.65;6.80;;;10.70;67.10;;;;;;5070332;28;20044;-81
2022/03/13 09:38:08;;;;;;;13.15;6.57;;;12.20;67.80;;;;;;5070960;28;20044;-79
2022/03/13 09:40:34;;;;;;;14.02;6.32;;;11.20;65.80;;;;;;5069193;28;20096;-81
2022/03/13 09:43:02;;;;;;;12.45;6.63;;;12.60;65.20;;;;;;5069902;28;20356;-76
2022/03/13 09:45:27;;;;;;;10.98;6.75;;;11.60;62.80;;;;;;5050936;28;20075;-76
2022/03/13 09:47:53;;;;;;;10.68;7.05;;;11.70;61.90;;;;;;5069965;28;20396;-76
2022/03/13 09:50:21;;;;;;;11.65;7.63;;;11.90;60.80;;;;;;5068749;28;20101;-76
2022/03/13 09:52:47;;;;;;;11.13;7.22;;;13.20;61.50;;;;;;5067738;28;20064;-76
2022/03/13 09:55:14;;;;;;;10.43;6.75;;;12.20;59.40;;;;;;5070073;28;20089;-76
2022/03/13 09:57:42;;;;;;;11.82;6.47;;;12.40;60.00;;;;;;5067055;28;20051;-76
2022/03/13 10:00:13;;;;;;;10.48;6.20;;;13.20;59.60;;;;;;5070089;28;20059;-75
2022/03/13 10:02:40;;;;;;;14.63;6.30;;;12.80;58.40;;;;;;5068342;28;20044;-75
2022/03/13 10:05:14;;;;;;;9.82;6.40;;;12.90;58.30;;;;;;5067760;28;20499;-78
2022/03/13 10:07:53;;;;;;;10.93;6.78;;;12.90;55.60;;;;;;5068666;28;20091;-76
2022/03/13 10:10:19;;;;;;;14.02;7.60;;;13.00;54.90;;;;;;5068439;28;20052;-76
2022/03/13 10:12:46;;;;;;;12.65;7.00;;;13.00;56.20;;;;;;5069486;28;20209;-76
2022/03/13 10:15:13;;;;;;;12.68;7.38;;;13.10;56.30;;;;;;5068231;28;20854;-77
2022/03/13 10:17:40;;;;;;;10.93;6.55;;;13.20;56.60;;;;;;5067594;28;20184;-77
2022/03/13 10:20:27;;;;;;;12.18;7.40;;;13.30;57.00;;;;;;5068190;28;20059;-77
2022/03/13 10:22:59;;;;;;;10.13;6.68;;;13.30;55.30;;;;;;5067427;28;20044;-77
2022/03/13 10:25:33;;;;;;;9.90;7.05;;;13.40;55.80;;;;;;5067581;28;20215;-76
2022/03/13 10:28:25;;;;;;;10.70;6.72;;;13.40;56.10;;;;;;5066121;28;20050;-76
2022/03/13 10:31:00;;;;;;;10.98;7.28;;;13.50;55.20;;;;;;5066274;28;20508;-76
2022/03/13 10:33:44;;;;;;;11.10;6.88;;;13.70;55.40;;;;;;5068250;28;20476;-76
2022/03/13 10:36:21;;;;;;;10.60;6.90;;;13.70;54.90;;;;;;5049417;28;20407;-77
2022/03/13 10:38:49;;;;;;;10.90;6.57;;;13.60;55.40;;;;;;5069050;28;20400;-76
2022/03/13 10:41:15;;;;;;;11.27;6.40;;;13.70;55.60;;;;;;5049441;28;20090;-76
2022/03/13 10:43:58;;;;;;;10.27;7.10;;;13.70;54.60;;;;;;5067193;28;20406;-76
2022/03/13 10:46:28;;;;;;;12.53;7.43;;;13.80;54.10;;;;;;5068677;28;20090;-76
2022/03/13 10:48:56;;;;;;;14.40;7.35;;;13.80;54.80;;;;;;5033127;28;20809;-76
2022/03/13 10:51:56;;;;;;;12.07;7.43;;;14.00;54.60;;;;;;5067098;28;20086;-76
2022/03/13 10:54:28;;;;;;;10.68;6.90;;;14.10;53.60;;;;;;5038352;28;20048;-77
2022/03/13 10:57:13;;;;;;;8.53;5.60;;;14.20;54.50;;;;;;5068167;28;20056;-77
2022/03/13 10:59:41;;;;;;;14.20;7.45;;;14.40;53.70;;;;;;5067103;28;20500;-77
2022/03/13 11:02:18;;;;;;;11.88;7.43;;;14.50;54.30;;;;;;5065734;28;20120;-77
2022/03/13 11:04:55;;;;;;;12.20;7.28;;;14.70;53.30;;;;;;5051026;28;20411;-77
2022/03/13 11:07:22;;;;;;;12.55;7.80;;;14.70;52.80;;;;;;5066084;28;20102;-77
2022/03/13 11:09:49;;;;;;;14.48;7.60;;;14.90;53.40;;;;;;5068196;28;20036;-77
2022/03/13 11:12:20;;;;;;;11.68;7.40;;;14.90;53.00;;;;;;5066804;28;20098;-77
2022/03/13 11:14:49;;;;;;;11.05;7.15;;;15.00;52.30;;;;;;5065662;28;20056;-77
2022/03/13 11:17:16;;;;;;;12.40;8.25;;;15.10;52.40;;;;;;5067899;28;20416;-77
2022/03/13 11:19:43;;;;;;;11.43;7.70;;;15.10;52.20;;;;;;5066691;28;20044;-77
2022/03/13 11:22:09;;;;;;;10.43;7.38;;;15.20;52.10;;;;;;5066766;28;20515;-78
2022/03/13 11:24:36;;;;;;;11.23;7.68;;;15.40;52.00;;;;;;5065904;28;20052;-78
2022/03/13 11:27:08;;;;;;;9.77;7.13;;;15.40;51.30;;;;;;5066412;28;20048;-79
2022/03/13 11:29:40;;;;;;;;;;;15.60;51.80;;;;;;5051098;28;20044;-79
2022/03/13 11:32:38;;;;;;;12.57;7.13;;;15.80;49.90;;;;;;5065701;28;19920;-78
2022/03/13 11:35:10;;;;;;;11.80;7.45;;;16.00;50.20;;;;;;5061723;28;20606;-79
2022/03/13 11:37:36;;;;;;;11.88;7.65;;;16.20;50.90;;;;;;5065801;28;20052;-79
2022/03/13 11:40:07;;;;;;;13.55;7.95;;;16.30;50.90;;;;;;5066977;28;20051;-79
2022/03/13 11:42:50;;;;;;;12.27;7.07;;;16.40;50.90;;;;;;5066109;28;20105;-79
2022/03/13 11:45:39;;;;;;;10.57;7.38;;;16.60;50.00;;;;;;5065144;28;20088;-79
2022/03/13 11:48:05;;;;;;;14.13;7.78;;;16.70;48.50;;;;;;5066210;28;20056;-79
2022/03/13 11:51:02;;;;;;;19.75;8.02;;;16.70;50.00;;;;;;5066138;28;20071;-79
2022/03/13 11:53:29;;;;;;;12.18;7.15;;;16.80;48.40;;;;;;5065370;28;20056;-79
2022/03/13 11:55:57;;;;;;;11.60;6.75;;;16.90;50.00;;;;;;5066399;28;20036;-78
2022/03/13 11:58:51;;;;;;;12.88;7.53;;;17.00;49.30;;;;;;5066564;28;20051;-79
2022/03/13 12:01:29;;;;;;;10.60;6.95;;;17.00;47.80;;;;;;5049296;28;20044;-78
2022/03/13 12:04:01;;;;;;;10.88;7.13;;;17.00;49.20;;;;;;5066102;28;20055;-78
2022/03/13 12:06:41;;;;;;;11.80;7.60;;;17.10;49.20;;;;;;5065094;28;20064;-79
2022/03/13 12:09:18;;;;;;;11.88;7.60;;;17.20;48.30;;;;;;5066031;28;20178;-79
2022/03/13 12:11:46;;;;;;;16.40;7.43;;;17.30;47.80;;;;;;5065509;28;20056;-79
2022/03/13 12:14:16;;;;;;;11.25;7.18;;;17.20;48.70;;;;;;5065357;28;20064;-79
2022/03/13 12:16:46;;;;;;;10.13;6.45;;;17.20;47.90;;;;;;5066894;28;20060;-78
2022/03/13 12:19:14;;;;;;;9.55;6.28;;;17.20;47.90;;;;;;5064652;28;20056;-79
2022/03/13 12:21:45;;;;;;;13.63;6.82;;;17.20;48.10;;;;;;5065836;28;20056;-78
2022/03/13 12:24:20;;;;;;;11.57;6.82;;;17.20;48.00;;;;;;5065272;28;20051;-79
2022/03/13 12:26:49;;;;;;;9.80;7.25;;;17.10;47.80;;;;;;5065740;28;20045;-78
2022/03/13 12:29:17;;;;;;;15.20;6.85;;;17.10;48.20;;;;;;5049714;28;20194;-78
2022/03/13 12:31:53;;;;;;;10.02;7.03;;;16.90;47.90;;;;;;5049285;28;20048;-79
2022/03/13 12:34:40;;;;;;;13.63;6.72;;;16.90;47.90;;;;;;5036643;28;20036;-79
2022/03/13 12:37:08;;;;;;;10.20;6.47;;;16.90;47.00;;;;;;5051860;28;20052;-78
2022/03/13 12:39:46;;;;;;;10.05;7.43;;;16.90;48.00;;;;;;5069550;28;20044;-79
2022/03/13 12:42:12;;;;;;;12.60;7.25;;;16.90;48.30;;;;;;5069638;28;20052;-78
2022/03/13 12:44:38;;;;;;;11.43;7.35;;;17.00;48.00;;;;;;5034894;28;20048;-77
2022/03/13 12:47:04;;;;;;;9.52;6.50;;;17.00;47.80;;;;;;5069676;28;20041;-77
2022/03/13 12:49:37;;;;;;;10.25;6.65;;;17.10;47.60;;;;;;5068314;28;20083;-77